»·PEaware :: ACA554 CYHZ-KBOS

ACA554 :: CYHZ-KBOS

FLIGHT INFORMATION

Flight Status: Arrived
Operator:
Air Canada
More flights by this operator :: More flights under this callsign
Pilot: Shawn G. (7208)
Aircraft: AIRBUS A320
(A320)
More flights by this aircraft type
Origin: CYHZ Halifax Intl
Canada
Destination: KBOS Logan Intl
United States
More flights between these airports :: More routes between these airports
Route: ALLEX AJJAY OOSHN5
File this flight plan on PilotEdge
Remarks:
Altitude:
(Current/Filed)
38,000ft
Speed:
(Current/Filed)
444kts
Departed: 02-Dec-17 09:17 AM
Arrived: 02-Dec-17 10:34 AM
Distance/Time
Traveled:
359nm/1:17
Distance/Time
To Go:
Arrived

Flight Plot

Page will automatically refresh every two minutes.

Flight plan parsing failed; only flown route is shown


Map Options




Map Legend


Flown Route
Filed Route
Departure Airport
Arrival Airport
Navaid (VOR, NDB)
Fix

Horizontal Profiles

Position Reports

Time Latitude Longitude Heading Altitude Ground
Speed
02-Dec-17 09:16 44.889953 -63.515288 128 486ft 0kts
02-Dec-17 09:17 44.889333 -63.514059 122 486ft 12kts
02-Dec-17 09:18 44.886117 -63.512389 170 486ft 13kts
02-Dec-17 09:19 44.883376 -63.509353 95 486ft 15kts
02-Dec-17 09:20 44.883533 -63.502230 102 486ft 21kts
02-Dec-17 09:21 44.880710 -63.496054 99 486ft 12kts
02-Dec-17 09:22 44.886107 -63.502887 304 486ft 127kts
02-Dec-17 09:23 44.911765 -63.560108 304 3109ft 193kts
02-Dec-17 09:24 44.925383 -63.644537 261 5658ft 269kts
02-Dec-17 09:25 44.911138 -63.749629 262 9125ft 280kts
02-Dec-17 09:26 44.895845 -63.861997 261 11640ft 320kts
02-Dec-17 09:27 44.878176 -63.989724 262 14227ft 340kts
02-Dec-17 09:28 44.859638 -64.122522 262 16768ft 351kts
02-Dec-17 09:29 44.840418 -64.259129 262 19050ft 361kts
02-Dec-17 09:30 44.820533 -64.399186 262 21104ft 370kts
02-Dec-17 09:31 44.799940 -64.542705 262 22952ft 379kts
02-Dec-17 09:32 44.778670 -64.689568 261 24630ft 388kts
02-Dec-17 09:33 44.756706 -64.839757 262 26194ft 396kts
02-Dec-17 09:34 44.734342 -64.991230 263 27812ft 397kts
02-Dec-17 09:35 44.711595 -65.143599 263 29179ft 401kts
02-Dec-17 09:36 44.688414 -65.297501 263 30330ft 407kts
02-Dec-17 09:37 44.664628 -65.454036 263 31372ft 412kts
02-Dec-17 09:38 44.640503 -65.611170 263 32572ft 409kts
02-Dec-17 09:39 44.616536 -65.765845 262 33749ft 406kts
02-Dec-17 09:40 44.592433 -65.919882 263 34768ft 404kts
02-Dec-17 09:41 44.568177 -66.073415 263 35658ft 404kts
02-Dec-17 09:42 44.543681 -66.227047 263 36448ft 404kts
02-Dec-17 09:43 44.520071 -66.373791 263 37080ft 404kts
02-Dec-17 09:44 44.495132 -66.527410 262 37642ft 405kts
02-Dec-17 09:45 44.469965 -66.681044 262 38111ft 406kts
02-Dec-17 09:46 44.444593 -66.834521 262 38317ft 403kts
02-Dec-17 09:47 44.418995 -66.986316 260 38325ft 404kts
02-Dec-17 09:48 44.382880 -67.134607 257 38389ft 399kts
02-Dec-17 09:49 44.346435 -67.278985 257 38389ft 391kts
02-Dec-17 09:50 44.310334 -67.421044 257 38365ft 387kts
02-Dec-17 09:51 44.274229 -67.562244 257 38418ft 388kts
02-Dec-17 09:52 44.237424 -67.705283 256 38436ft 396kts
02-Dec-17 09:53 44.200125 -67.849383 256 38435ft 395kts
02-Dec-17 09:54 44.162870 -67.992456 256 38429ft 394kts
02-Dec-17 09:55 44.125371 -68.135587 256 38424ft 394kts
02-Dec-17 09:56 44.087580 -68.278964 256 38426ft 394kts
02-Dec-17 09:57 44.049814 -68.421389 256 38430ft 394kts
02-Dec-17 09:58 44.011712 -68.564232 256 38435ft 394kts
02-Dec-17 09:59 43.974025 -68.704691 256 38434ft 395kts
02-Dec-17 10:00 43.935433 -68.847670 256 38449ft 397kts
02-Dec-17 10:01 43.896695 -68.990334 256 38471ft 396kts
02-Dec-17 10:02 43.858058 -69.131822 255 38477ft 390kts
02-Dec-17 10:03 43.819851 -69.270938 255 38428ft 385kts
02-Dec-17 10:04 43.781792 -69.408717 255 38399ft 383kts
02-Dec-17 10:05 43.741666 -69.538054 244 38323ft 395kts
02-Dec-17 10:06 43.651877 -69.636308 209 35912ft 444kts
02-Dec-17 10:07 43.538017 -69.687984 207 33591ft 444kts
02-Dec-17 10:08 43.421381 -69.740510 206 31125ft 443kts
02-Dec-17 10:09 43.304580 -69.792810 205 28393ft 443kts
02-Dec-17 10:10 43.189770 -69.843990 205 26316ft 424kts
02-Dec-17 10:11 43.079934 -69.892794 204 24155ft 409kts
02-Dec-17 10:12 42.974253 -69.939580 203 21897ft 396kts
02-Dec-17 10:13 42.871790 -69.984811 202 19767ft 382kts
02-Dec-17 10:14 42.773015 -70.028255 202 17768ft 367kts
02-Dec-17 10:15 42.679099 -70.074000 204 15765ft 352kts
02-Dec-17 10:16 42.623165 -70.167817 246 14367ft 310kts
02-Dec-17 10:17 42.592281 -70.268131 252 13764ft 277kts
02-Dec-17 10:18 42.567494 -70.366225 251 13032ft 273kts
02-Dec-17 10:19 42.542892 -70.463131 251 12303ft 270kts
02-Dec-17 10:20 42.518629 -70.562164 253 11558ft 271kts
02-Dec-17 10:21 42.496615 -70.658293 252 10857ft 267kts
02-Dec-17 10:22 42.474492 -70.753956 253 10153ft 265kts
02-Dec-17 10:23 42.444667 -70.843450 227 9485ft 267kts
02-Dec-17 10:24 42.383754 -70.900655 201 8119ft 286kts
02-Dec-17 10:25 42.310668 -70.935433 201 6973ft 270kts
02-Dec-17 10:26 42.242704 -70.964889 199 6215ft 249kts
02-Dec-17 10:27 42.178488 -70.992289 199 6046ft 233kts
02-Dec-17 10:28 42.117472 -71.018969 199 6044ft 231kts
02-Dec-17 10:29 42.056198 -71.045768 199 5997ft 231kts
02-Dec-17 10:30 42.006454 -71.089894 266 5021ft 222kts
02-Dec-17 10:31 42.031600 -71.156657 353 4090ft 218kts
02-Dec-17 10:32 42.090066 -71.135814 16 4064ft 217kts
02-Dec-17 10:33 42.144376 -71.112115 19 4052ft 196kts
02-Dec-17 10:34 42.192727 -71.088354 19 3455ft 180kts
02-Dec-17 10:35 42.236254 -71.067308 19 2446ft 151kts
02-Dec-17 10:36 42.272986 -71.049525 19 1734ft 137kts
02-Dec-17 10:37 42.308786 -71.032222 19 987ft 136kts
02-Dec-17 10:38 42.344223 -71.015067 19 282ft 134kts
02-Dec-17 10:39 42.370334 -71.002520 17 29ft 22kts
02-Dec-17 10:40 42.376086 -71.002710 347 29ft 18kts
02-Dec-17 10:41 42.378341 -71.006251 242 29ft 12kts
02-Dec-17 10:42 42.374670 -71.008220 199 29ft 18kts
02-Dec-17 10:43 42.369169 -71.011792 219 29ft 25kts
02-Dec-17 10:44 42.363704 -71.014107 196 29ft 25kts
02-Dec-17 10:45 42.359417 -71.016209 203 29ft 18kts
02-Dec-17 10:46 42.360626 -71.021473 300 29ft 17kts
02-Dec-17 10:47 42.362701 -71.022054 66 29ft 10kts
02-Dec-17 10:48 42.363035 -71.019974 131 29ft 0kts
02-Dec-17 10:49 42.362965 -71.019867 131 29ft 0kts

Navigation Log

Ident Type
Flight plan parsing failed, navigation log unavailable